Time;durP1;ratioP1;P1;durP2;ratioP2;P2;SDS_P1;SDS_P2;PMS_P1;PMS_P2;Temp;Humidity;BMP_temperature;BMP_pressure;BME280_temperature;BME280_humidity;BME280_pressure;Samples;Min_cycle;Max_cycle;Signal;HPM_P1;HPM_P2
2022/04/07 00:00:20;;;;;;;5.87;3.97;;;;;;;14.98;44.59;93779.47;5109886;28;20285;-74
2022/04/07 00:02:47;;;;;;;5.73;3.40;;;;;;;14.96;44.66;93769.38;5097883;28;20200;-74
2022/04/07 00:05:14;;;;;;;4.13;3.57;;;;;;;14.97;45.11;93773.53;5090084;28;20194;-74
2022/04/07 00:07:41;;;;;;;4.90;3.60;;;;;;;14.97;45.12;93759.84;5100496;28;20185;-75
2022/04/07 00:10:09;;;;;;;4.47;3.33;;;;;;;14.95;45.21;93762.63;5110573;28;20184;-74
2022/04/07 00:12:37;;;;;;;7.53;3.67;;;;;;;14.94;45.35;93761.03;5106944;28;20560;-73
2022/04/07 00:15:04;;;;;;;8.23;3.90;;;;;;;14.92;45.44;93747.56;5110176;28;20200;-73
2022/04/07 00:17:31;;;;;;;5.23;4.10;;;;;;;14.90;45.40;93739.22;5108170;28;20640;-73
2022/04/07 00:19:58;;;;;;;5.33;4.00;;;;;;;14.86;45.77;93747.53;5110115;28;20562;-74
2022/04/07 00:22:25;;;;;;;4.37;3.97;;;;;;;14.84;45.92;93752.03;5110018;28;20204;-73
2022/04/07 00:24:51;;;;;;;7.37;3.97;;;;;;;14.81;46.10;93732.63;5110001;28;20582;-75
2022/04/07 00:27:20;;;;;;;4.27;3.47;;;;;;;14.80;46.32;93726.66;5108684;28;20185;-77
2022/04/07 00:29:46;;;;;;;7.90;3.63;;;;;;;14.78;46.20;93722.72;5109789;28;20185;-75
2022/04/07 00:32:13;;;;;;;4.23;3.73;;;;;;;14.75;46.30;93716.16;5108016;28;20200;-73
2022/04/07 00:34:44;;;;;;;4.57;3.57;;;;;;;14.73;46.21;93702.69;5109919;28;20225;-76
2022/04/07 00:37:11;;;;;;;5.87;3.83;;;;;;;14.72;46.43;93719.09;5111363;28;20658;-73
2022/04/07 00:39:37;;;;;;;5.47;4.47;;;;;;;14.68;46.43;93715.31;5113757;28;20615;-73
2022/04/07 00:42:05;;;;;;;5.20;3.70;;;;;;;14.67;46.47;93725.78;5113837;28;20218;-73
2022/04/07 00:44:33;;;;;;;8.10;3.63;;;;;;;14.63;46.92;93720.19;5113490;28;20192;-73
2022/04/07 00:47:00;;;;;;;4.83;3.53;;;;;;;14.64;46.68;93726.97;5113400;28;20579;-73
2022/04/07 00:49:26;;;;;;;6.03;4.27;;;;;;;14.60;46.98;93712.88;5113305;28;20204;-72
2022/04/07 00:51:54;;;;;;;6.27;3.67;;;;;;;14.57;47.19;93718.38;5102115;28;20198;-73
2022/04/07 00:54:21;;;;;;;7.50;3.97;;;;;;;14.52;47.26;93715.59;5092842;28;20221;-74
2022/04/07 00:56:48;;;;;;;4.97;4.00;;;;;;;14.53;47.30;93710.25;5093231;28;20196;-73
2022/04/07 00:59:17;;;;;;;5.40;3.97;;;;;;;14.48;47.67;93701.47;5092673;28;20200;-74
2022/04/07 01:01:45;;;;;;;10.00;3.80;;;;;;;14.42;47.44;93690.16;5092740;28;20293;-73
2022/04/07 01:04:12;;;;;;;6.60;3.73;;;;;;;14.46;47.59;93687.97;5092705;28;20233;-74
2022/04/07 01:06:41;;;;;;;5.80;4.43;;;;;;;14.44;47.51;93690.75;5092934;28;20557;-75
2022/04/07 01:09:08;;;;;;;6.20;4.03;;;;;;;14.40;47.61;93688.72;5092735;28;20209;-76
2022/04/07 01:11:37;;;;;;;7.20;3.73;;;;;;;14.35;47.95;93678.22;5102467;28;20192;-72
2022/04/07 01:14:05;;;;;;;4.43;4.00;;;;;;;14.36;47.80;93674.66;5113191;28;20197;-74
2022/04/07 01:16:32;;;;;;;5.37;3.60;;;;;;;14.31;47.83;93668.28;5112912;28;20276;-74
2022/04/07 01:19:01;;;;;;;6.03;4.07;;;;;;;14.31;47.87;93660.56;5112634;28;20184;-74
2022/04/07 01:21:30;;;;;;;8.13;3.80;;;;;;;14.17;47.94;93645.22;5112884;28;20228;-73
2022/04/07 01:24:02;;;;;;;6.57;3.77;;;;;;;14.30;48.04;93661.56;5112662;28;20189;-73
2022/04/07 01:26:32;;;;;;;8.73;3.67;;;;;;;14.27;48.08;93663.69;5110476;28;20205;-74
2022/04/07 01:29:00;;;;;;;4.77;3.57;;;;;;;14.24;48.01;93646.84;5091940;28;20306;-72
2022/04/07 01:31:27;;;;;;;8.23;3.73;;;;;;;14.20;48.33;93640.50;5101543;28;20232;-73
2022/04/07 01:33:56;;;;;;;9.50;4.10;;;;;;;14.19;48.47;93649.19;5112257;28;20239;-73
2022/04/07 01:36:23;;;;;;;5.73;4.07;;;;;;;14.18;48.38;93628.81;5112628;28;20659;-73
2022/04/07 01:38:51;;;;;;;5.23;4.07;;;;;;;14.17;48.40;93622.09;5112337;28;20270;-73
2022/04/07 01:41:20;;;;;;;4.77;3.97;;;;;;;14.13;48.47;93603.66;5112720;28;20220;-74
2022/04/07 01:43:50;;;;;;;8.33;4.00;;;;;;;14.13;48.17;93605.44;5112231;28;20650;-74
2022/04/07 01:46:18;;;;;;;4.90;3.93;;;;;;;14.12;48.45;93601.25;5111235;28;20595;-71
2022/04/07 01:48:47;;;;;;;7.70;3.37;;;;;;;14.15;48.07;93585.47;5112181;28;20193;-73
2022/04/07 01:51:14;;;;;;;5.50;3.40;;;;;;;14.16;48.04;93597.34;5102649;28;20208;-73
2022/04/07 01:53:43;;;;;;;3.83;3.40;;;;;;;14.17;47.80;93594.59;5092259;28;20247;-73
2022/04/07 01:56:10;;;;;;;5.97;3.77;;;;;;;14.17;47.95;93598.94;5091993;28;20186;-73
2022/04/07 01:58:37;;;;;;;5.70;3.50;;;;;;;14.18;47.93;93583.31;5092013;28;20186;-74
2022/04/07 02:01:05;;;;;;;4.00;3.57;;;;;;;14.19;47.82;93577.19;5098260;28;20216;-73
2022/04/07 02:03:32;;;;;;;5.83;3.47;;;;;;;14.18;47.80;93585.09;5112069;28;20193;-74
2022/04/07 02:06:10;;;;;;;6.63;3.73;;;;;;;14.19;47.66;93582.34;5111713;28;20664;-73
2022/04/07 02:08:37;;;;;;;6.80;3.50;;;;;;;14.21;47.67;93561.59;5111746;28;20192;-73
2022/04/07 02:11:04;;;;;;;5.00;3.43;;;;;;;14.20;47.62;93563.34;5110585;28;20213;-73
2022/04/07 02:13:32;;;;;;;5.13;3.00;;;;;;;14.22;47.79;93571.69;5112120;28;20204;-73
2022/04/07 02:15:59;;;;;;;4.93;3.37;;;;;;;14.27;47.66;93564.19;5111426;28;20686;-73
2022/04/07 02:18:28;;;;;;;3.90;3.33;;;;;;;14.27;47.79;93560.84;5112050;28;20185;-71
2022/04/07 02:20:55;;;;;;;6.33;3.10;;;;;;;14.28;47.70;93549.56;5109763;28;20192;-72
2022/04/07 02:23:21;;;;;;;4.07;3.30;;;;;;;14.26;47.58;93554.13;5111836;28;20212;-73
2022/04/07 02:25:48;;;;;;;5.47;3.17;;;;;;;14.26;47.53;93552.34;5111230;28;20196;-74
2022/04/07 02:28:15;;;;;;;6.03;3.50;;;;;;;14.25;47.69;93539.69;5111941;28;20185;-72
2022/04/07 02:30:42;;;;;;;4.07;2.80;;;;;;;14.24;47.59;93540.63;5106369;28;20324;-72
2022/04/07 02:33:09;;;;;;;3.67;3.23;;;;;;;14.23;47.65;93536.47;5091350;28;20229;-73
2022/04/07 02:35:37;;;;;;;3.60;3.30;;;;;;;14.21;47.79;93548.75;5090976;28;20193;-73
2022/04/07 02:38:04;;;;;;;4.43;3.20;;;;;;;14.27;47.64;93538.50;5091105;28;20628;-73
2022/04/07 02:40:31;;;;;;;4.43;3.30;;;;;;;14.31;47.39;93526.06;5096727;28;20192;-74
2022/04/07 02:42:57;;;;;;;4.87;2.53;;;;;;;14.31;47.74;93536.34;5110977;28;20219;-74
2022/04/07 02:45:24;;;;;;;4.43;3.33;;;;;;;14.33;47.80;93511.22;5111595;28;20189;-73
2022/04/07 02:47:51;;;;;;;3.67;2.70;;;;;;;14.39;47.36;93519.97;5111115;28;20180;-74
2022/04/07 02:50:18;;;;;;;5.43;2.93;;;;;;;14.39;47.44;93517.41;5111553;28;20264;-75
2022/04/07 02:52:46;;;;;;;3.57;3.07;;;;;;;14.43;47.25;93506.53;5107627;28;20189;-75
2022/04/07 02:55:13;;;;;;;5.00;3.07;;;;;;;14.46;47.16;93495.06;5096336;28;20197;-72
2022/04/07 02:57:39;;;;;;;4.13;2.80;;;;;;;14.50;47.31;93480.88;5092040;28;20190;-74
2022/04/07 03:00:08;;;;;;;5.87;3.13;;;;;;;14.52;47.22;93477.13;5089919;28;20580;-72
2022/04/07 03:02:34;;;;;;;9.07;3.20;;;;;;;14.54;47.17;93461.50;5090702;28;20240;-74
2022/04/07 03:05:01;;;;;;;4.67;3.13;;;;;;;14.58;47.00;93467.06;5095348;28;20189;-72
2022/04/07 03:07:28;;;;;;;3.10;2.77;;;;;;;14.59;47.10;93478.91;5109063;28;20181;-73
2022/04/07 03:09:56;;;;;;;4.43;3.23;;;;;;;14.61;47.05;93474.38;5110678;28;20622;-73
2022/04/07 03:12:23;;;;;;;4.03;2.70;;;;;;;14.63;46.75;93456.97;5110792;28;20189;-73
2022/04/07 03:14:50;;;;;;;4.47;2.87;;;;;;;14.67;46.78;93440.94;5106046;28;20239;-74
2022/04/07 03:17:16;;;;;;;3.70;2.97;;;;;;;14.67;46.93;93440.16;5096029;28;20185;-73
2022/04/07 03:19:43;;;;;;;3.20;2.90;;;;;;;14.66;46.71;93451.44;5092790;28;20186;-73
2022/04/07 03:22:12;;;;;;;7.10;3.13;;;;;;;14.68;46.73;93463.16;5090541;28;20221;-73
2022/04/07 03:24:39;;;;;;;4.53;3.00;;;;;;;14.70;46.83;93462.94;5089876;28;20189;-74
2022/04/07 03:27:07;;;;;;;3.57;3.27;;;;;;;14.69;46.71;93456.22;5090499;28;20551;-73
2022/04/07 03:29:35;;;;;;;4.10;3.10;;;;;;;14.69;46.81;93454.44;5090113;28;20189;-73
2022/04/07 03:32:02;;;;;;;3.90;3.50;;;;;;;14.66;46.64;93444.50;5107637;28;20227;-73
2022/04/07 03:34:28;;;;;;;4.53;3.37;;;;;;;14.68;46.70;93441.75;5110210;28;20711;-74
2022/04/07 03:36:55;;;;;;;4.63;3.37;;;;;;;14.69;46.95;93436.41;5110636;28;20184;-73
2022/04/07 03:39:22;;;;;;;5.37;3.50;;;;;;;14.68;46.88;93429.69;5094697;28;20634;-73
2022/04/07 03:41:49;;;;;;;5.33;3.00;;;;;;;14.67;46.89;93424.72;5090178;28;20221;-73
2022/04/07 03:44:18;;;;;;;8.13;3.37;;;;;;;14.66;47.16;93405.91;5090252;28;20182;-73
2022/04/07 03:46:45;;;;;;;5.67;3.70;;;;;;;14.55;47.15;93366.13;5089933;28;20725;-73
2022/04/07 03:49:12;;;;;;;3.30;3.00;;;;;;;14.62;47.42;93383.34;5089867;28;20695;-73
2022/04/07 03:51:38;;;;;;;5.30;4.20;;;;;;;14.62;47.25;93385.94;5102072;28;20652;-73
2022/04/07 03:54:06;;;;;;;4.07;2.80;;;;;;;14.61;47.55;93387.72;5110284;28;20193;-72
2022/04/07 03:56:32;;;;;;;5.10;3.00;;;;;;;14.61;47.52;93369.69;5110318;28;20185;-73
2022/04/07 03:58:59;;;;;;;2.97;2.67;;;;;;;14.60;47.59;93380.19;5096530;28;20193;-74
2022/04/07 04:01:27;;;;;;;7.80;3.77;;;;;;;14.57;47.86;93372.84;5089283;28;20196;-73
2022/04/07 04:03:55;;;;;;;4.20;3.47;;;;;;;14.59;48.10;93379.38;5089960;28;20193;-73
2022/04/07 04:06:21;;;;;;;6.87;3.17;;;;;;;14.57;47.88;93376.22;5089923;28;20201;-73
2022/04/07 04:08:48;;;;;;;6.10;3.13;;;;;;;14.57;48.04;93394.22;5089716;28;20200;-73
2022/04/07 04:11:15;;;;;;;3.30;3.00;;;;;;;14.55;47.85;93402.16;5091574;28;20653;-72
2022/04/07 04:13:42;;;;;;;3.97;3.10;;;;;;;14.54;48.26;93413.41;5094085;28;20182;-72
2022/04/07 04:16:09;;;;;;;6.17;3.00;;;;;;;14.59;48.02;93423.13;5110868;28;20196;-74
2022/04/07 04:18:37;;;;;;;5.40;3.57;;;;;;;14.62;48.12;93421.94;5101933;28;20802;-75
2022/04/07 04:21:04;;;;;;;4.17;3.27;;;;;;;14.63;48.17;93429.47;5098771;28;20230;-73
2022/04/07 04:23:31;;;;;;;7.13;4.20;;;;;;;14.65;48.02;93417.22;5114133;28;20217;-74
2022/04/07 04:25:58;;;;;;;8.63;3.97;;;;;;;14.64;48.28;93413.06;5114069;28;20288;-73
2022/04/07 04:28:25;;;;;;;6.73;3.90;;;;;;;14.67;48.59;93412.66;5106370;28;20182;-75
2022/04/07 04:30:51;;;;;;;7.77;3.93;;;;;;;14.72;48.14;93409.50;5100378;28;20216;-74
2022/04/07 04:33:18;;;;;;;5.63;3.40;;;;;;;14.69;48.18;93408.13;5093146;28;20221;-75
2022/04/07 04:35:46;;;;;;;7.67;4.07;;;;;;;14.75;48.25;93415.06;5093220;28;20193;-73
2022/04/07 04:38:13;;;;;;;10.27;4.40;;;;;;;14.76;48.22;93408.91;5102682;28;20702;-74
2022/04/07 04:40:40;;;;;;;5.90;3.60;;;;;;;14.80;48.14;93404.16;5114015;28;20215;-76
2022/04/07 04:43:07;;;;;;;6.50;4.13;;;;;;;14.80;48.17;93399.03;5113602;28;20208;-74
2022/04/07 04:45:34;;;;;;;8.27;4.43;;;;;;;14.85;48.20;93408.72;5113194;28;20674;-74
2022/04/07 04:48:02;;;;;;;8.50;4.27;;;;;;;14.86;48.24;93395.69;5112885;28;20197;-79
2022/04/07 04:50:29;;;;;;;6.43;4.63;;;;;;;14.84;48.46;93392.50;5113575;28;20193;-75
2022/04/07 04:52:57;;;;;;;13.40;5.07;;;;;;;14.89;48.50;93410.72;5111440;28;20268;-76
2022/04/07 04:55:23;;;;;;;11.80;5.10;;;;;;;14.84;48.98;93400.22;5113760;28;20189;-77
2022/04/07 04:57:50;;;;;;;8.60;4.70;;;;;;;14.93;49.84;93416.28;5106526;28;20186;-76
2022/04/07 05:00:18;;;;;;;8.13;4.13;;;;;;;14.96;49.96;93410.75;5101007;28;20208;-77
2022/04/07 05:02:44;;;;;;;7.20;5.07;;;;;;;14.99;50.38;93418.88;5092977;28;20251;-76
2022/04/07 05:05:12;;;;;;;9.23;4.93;;;;;;;15.00;50.41;93404.22;5095102;28;20181;-78
2022/04/07 05:07:40;;;;;;;9.57;4.40;;;;;;;15.02;50.40;93407.38;5093680;28;20186;-81
2022/04/07 05:10:09;;;;;;;8.93;4.80;;;;;;;15.05;50.38;93394.91;5092812;28;20182;-74
2022/04/07 05:12:36;;;;;;;6.40;4.80;;;;;;;15.12;50.50;93399.28;5093109;28;20258;-76
2022/04/07 05:15:04;;;;;;;9.83;6.10;;;;;;;15.24;50.22;93411.38;5092752;28;20593;-74
2022/04/07 05:17:31;;;;;;;6.77;4.90;;;;;;;15.38;50.17;93417.31;5092623;28;20229;-74
2022/04/07 05:19:58;;;;;;;6.83;5.13;;;;;;;15.56;49.93;93411.56;5092297;28;20582;-74
2022/04/07 05:22:24;;;;;;;8.90;4.87;;;;;;;15.71;49.61;93399.25;5091816;28;20560;-75
2022/04/07 05:24:52;;;;;;;8.10;5.33;;;;;;;15.88;49.48;93406.56;5092427;28;20197;-74
2022/04/07 05:27:20;;;;;;;8.53;5.33;;;;;;;16.04;49.25;93406.94;5092716;28;20712;-74
2022/04/07 05:29:47;;;;;;;7.37;5.40;;;;;;;16.21;48.88;93396.97;5092178;28;20726;-74
2022/04/07 05:32:13;;;;;;;8.30;5.23;;;;;;;16.29;48.84;93381.28;5092342;28;20200;-74
2022/04/07 05:34:40;;;;;;;6.30;4.67;;;;;;;16.50;48.49;93395.66;5092145;28;20221;-75
2022/04/07 05:37:07;;;;;;;11.40;5.20;;;;;;;16.52;48.36;93395.47;5092055;28;20187;-75
2022/04/07 05:39:34;;;;;;;10.50;4.90;;;;;;;16.72;47.97;93409.09;5092389;28;20196;-75
2022/04/07 05:42:01;;;;;;;12.90;5.00;;;;;;;16.78;47.99;93390.19;5091662;28;20225;-76
2022/04/07 05:44:29;;;;;;;8.90;5.30;;;;;;;16.82;47.79;93402.69;5092510;28;20189;-77
2022/04/07 05:46:56;;;;;;;8.17;5.13;;;;;;;16.82;47.84;93387.97;5091693;28;20194;-74
2022/04/07 05:49:22;;;;;;;8.03;5.60;;;;;;;16.81;47.42;93394.16;5092017;28;20189;-74
2022/04/07 05:51:53;;;;;;;6.83;5.00;;;;;;;16.82;47.63;93372.50;5092062;28;20186;-76
2022/04/07 05:54:20;;;;;;;6.87;4.80;;;;;;;16.83;47.44;93368.13;5092309;28;20190;-79
2022/04/07 05:56:47;;;;;;;7.43;5.27;;;;;;;16.83;47.55;93371.50;5091848;28;20189;-76
2022/04/07 05:59:14;;;;;;;6.70;5.03;;;;;;;16.83;47.46;93371.50;5091830;28;20177;-76
2022/04/07 06:01:42;;;;;;;10.23;5.10;;;;;;;16.83;47.22;93342.28;5091560;28;20196;-76
2022/04/07 06:04:09;;;;;;;5.57;4.60;;;;;;;16.81;47.23;93342.53;5091848;28;20232;-78
2022/04/07 06:06:36;;;;;;;6.60;5.07;;;;;;;16.83;46.93;93339.72;5091651;28;20182;-76
2022/04/07 06:09:03;;;;;;;6.53;4.33;;;;;;;16.84;46.64;93344.69;5091829;28;20193;-77
2022/04/07 06:11:29;;;;;;;8.80;5.03;;;;;;;16.81;46.48;93350.25;5091594;28;20613;-78
2022/04/07 06:13:56;;;;;;;8.87;4.73;;;;;;;16.79;46.12;93340.13;5091836;28;20190;-75
2022/04/07 06:16:23;;;;;;;8.60;4.97;;;;;;;16.75;46.27;93341.56;5091975;28;20198;-77
2022/04/07 06:18:52;;;;;;;7.87;4.13;;;;;;;16.66;45.73;93352.31;5091357;28;20200;-77
2022/04/07 06:21:19;;;;;;;5.67;3.73;;;;;;;16.51;45.49;93335.31;5091634;28;20186;-78
2022/04/07 06:23:46;;;;;;;8.03;4.00;;;;;;;16.51;45.66;93347.44;5091152;28;20224;-75
2022/04/07 06:26:13;;;;;;;5.97;3.93;;;;;;;16.49;45.53;93344.25;5091651;28;20746;-77
2022/04/07 06:28:41;;;;;;;8.20;4.03;;;;;;;16.43;45.56;93339.94;5091110;28;20193;-77
2022/04/07 06:31:08;;;;;;;11.90;4.17;;;;;;;16.44;45.48;93346.66;5091240;28;20197;-76
2022/04/07 06:33:35;;;;;;;7.50;3.77;;;;;;;16.36;45.40;93336.59;5090796;28;20742;-75
2022/04/07 06:36:05;;;;;;;4.83;4.03;;;;;;;16.35;45.08;93337.59;5090967;28;20200;-77
2022/04/07 06:38:33;;;;;;;7.13;4.30;;;;;;;16.29;45.14;93337.41;5091066;28;20193;-80
2022/04/07 06:40:59;;;;;;;8.57;4.37;;;;;;;16.25;45.06;93331.09;5091123;28;20247;-79
2022/04/07 06:43:27;;;;;;;12.57;4.07;;;;;;;16.22;45.06;93336.66;5091132;28;20232;-78
2022/04/07 06:45:53;;;;;;;6.57;3.80;;;;;;;16.24;44.73;93328.72;5091166;28;20201;-77
2022/04/07 06:48:21;;;;;;;6.30;3.90;;;;;;;16.26;44.89;93331.88;5090742;28;20217;-77
2022/04/07 06:50:47;;;;;;;6.97;4.17;;;;;;;16.29;44.60;93329.69;5091198;28;20238;-77
2022/04/07 06:53:16;;;;;;;7.30;3.57;;;;;;;16.33;44.68;93329.28;5090952;28;20197;-78
2022/04/07 06:55:43;;;;;;;5.30;3.53;;;;;;;16.36;44.51;93345.09;5091029;28;20212;-79
2022/04/07 06:58:11;;;;;;;5.23;3.73;;;;;;;16.39;44.57;93336.97;5091213;28;20224;-77
2022/04/07 07:00:43;;;;;;;6.10;3.57;;;;;;;16.40;44.39;93333.38;5090770;28;20627;-77
2022/04/07 07:03:10;;;;;;;8.17;4.57;;;;;;;16.45;44.25;93320.69;5090450;28;20328;-76
2022/04/07 07:05:38;;;;;;;7.30;3.83;;;;;;;16.53;44.23;93322.19;5090669;28;20197;-78
2022/04/07 07:08:18;;;;;;;5.80;3.60;;;;;;;16.59;44.21;93307.69;5090949;28;20196;-77
2022/04/07 07:10:47;;;;;;;7.60;3.83;;;;;;;16.69;44.17;93313.16;5090881;28;20261;-75
2022/04/07 07:13:16;;;;;;;7.70;4.70;;;;;;;16.77;43.91;93320.69;5090664;28;20189;-79
2022/04/07 07:15:43;;;;;;;8.83;3.93;;;;;;;16.81;43.83;93327.03;5090409;28;20182;-76
2022/04/07 07:18:10;;;;;;;11.23;4.20;;;;;;;16.80;43.82;93315.13;5090897;28;20193;-78
2022/04/07 07:20:37;;;;;;;8.77;4.90;;;;;;;16.89;43.71;93321.59;5090750;28;20189;-80
2022/04/07 07:23:04;;;;;;;8.77;4.47;;;;;;;16.92;43.68;93321.16;5090578;28;20657;-75
2022/04/07 07:25:32;;;;;;;9.17;5.13;;;;;;;17.01;43.64;93330.25;5090221;28;20567;-77
2022/04/07 07:28:00;;;;;;;7.53;4.70;;;;;;;17.08;43.53;93321.66;5090218;28;20193;-78
2022/04/07 07:30:28;;;;;;;7.27;4.70;;;;;;;17.15;43.41;93320.63;5090416;28;20196;-78
2022/04/07 07:32:55;;;;;;;9.40;4.73;;;;;;;17.20;43.29;93310.44;5089890;28;20224;-78
2022/04/07 07:35:24;;;;;;;9.10;4.70;;;;;;;17.27;43.25;93312.94;5090139;28;20264;-75
2022/04/07 07:37:53;;;;;;;8.80;4.70;;;;;;;17.34;43.03;93305.94;5090224;28;20192;-77
2022/04/07 07:40:22;;;;;;;12.17;4.77;;;;;;;17.38;42.97;93293.38;5089836;28;20189;-79
2022/04/07 07:42:53;;;;;;;9.33;4.40;;;;;;;17.46;42.69;93287.94;5090255;28;20205;-79
2022/04/07 07:45:20;;;;;;;8.90;4.30;;;;;;;17.56;42.48;93277.88;5089777;28;20200;-77
2022/04/07 07:47:46;;;;;;;5.63;4.43;;;;;;;17.66;42.39;93272.19;5089979;28;20277;-78
2022/04/07 07:50:13;;;;;;;6.07;4.30;;;;;;;17.76;42.34;93291.41;5089765;28;20617;-76
2022/04/07 07:52:40;;;;;;;9.07;4.83;;;;;;;17.80;42.27;93279.63;5089985;28;20781;-77
2022/04/07 07:55:09;;;;;;;12.90;4.93;;;;;;;17.88;42.24;93283.75;5090115;28;20189;-78
2022/04/07 07:57:36;;;;;;;7.73;5.13;;;;;;;17.91;42.33;93280.69;5090012;28;20196;-77
2022/04/07 08:00:07;;;;;;;8.37;4.50;;;;;;;17.93;42.62;93277.91;5090110;28;20182;-76
2022/04/07 08:02:34;;;;;;;6.80;4.53;;;;;;;17.90;42.56;93249.88;5089984;28;20592;-76
2022/04/07 08:05:01;;;;;;;5.80;4.17;;;;;;;18.03;42.35;93268.63;5089858;28;20224;-76
2022/04/07 08:07:28;;;;;;;7.73;4.90;;;;;;;18.14;42.35;93272.28;5089591;28;20201;-76
2022/04/07 08:09:55;;;;;;;7.10;4.33;;;;;;;18.25;42.10;93261.16;5089688;28;20215;-76
2022/04/07 08:12:23;;;;;;;6.93;4.40;;;;;;;18.38;41.96;93249.84;5089624;28;20582;-77
2022/04/07 08:14:50;;;;;;;9.67;4.40;;;;;;;18.49;41.97;93256.06;5089528;28;20664;-77
2022/04/07 08:17:19;;;;;;;7.77;4.27;;;;;;;18.60;41.96;93255.28;5089924;28;20197;-79
2022/04/07 08:19:46;;;;;;;8.10;4.97;;;;;;;18.73;41.66;93233.63;5089841;28;20768;-77
2022/04/07 08:22:13;;;;;;;7.53;4.00;;;;;;;18.81;41.72;93246.25;5071874;28;20182;-77
2022/04/07 08:24:39;;;;;;;11.43;5.10;;;;;;;18.94;41.67;93245.25;5089584;28;20221;-79
2022/04/07 08:27:07;;;;;;;6.43;4.83;;;;;;;19.10;41.46;93225.66;5089472;28;20193;-76
2022/04/07 08:29:34;;;;;;;5.93;4.23;;;;;;;19.29;41.16;93234.88;5089753;28;20568;-78
2022/04/07 08:32:01;;;;;;;8.83;4.50;;;;;;;19.53;41.20;93239.03;5089246;28;20657;-77
2022/04/07 08:34:29;;;;;;;6.23;4.20;;;;;;;19.74;40.72;93229.09;5089762;28;20244;-75
2022/04/07 08:36:56;;;;;;;7.40;4.27;;;;;;;19.98;40.60;93235.00;5089591;28;20190;-77
2022/04/07 08:39:23;;;;;;;6.07;3.90;;;;;;;20.14;40.43;93221.28;5089161;28;20201;-76
2022/04/07 08:41:50;;;;;;;6.93;4.53;;;;;;;20.31;40.22;93231.69;5089618;28;20178;-75
2022/04/07 08:44:18;;;;;;;8.37;4.73;;;;;;;20.39;40.03;93227.94;5090160;28;20210;-75
2022/04/07 08:46:51;;;;;;;11.77;4.60;;;;;;;20.48;39.88;93223.97;5091776;28;20633;-74
2022/04/07 08:49:21;;;;;;;9.17;3.87;;;;;;;20.57;39.18;93226.97;5090973;28;20225;-73
2022/04/07 08:51:51;;;;;;;5.37;4.00;;;;;;;20.64;38.95;93222.38;5090361;28;20265;-76
2022/04/07 08:54:18;;;;;;;3.87;3.47;;;;;;;20.78;38.72;93221.06;5089711;28;20265;-77
2022/04/07 08:56:45;;;;;;;5.23;3.53;;;;;;;20.92;38.26;93221.53;5089649;28;20202;-77
2022/04/07 08:59:12;;;;;;;8.97;4.40;;;;;;;21.01;38.14;93212.31;5092462;28;20212;-78
2022/04/07 09:01:39;;;;;;;7.70;4.47;;;;;;;20.97;37.92;93193.03;5093119;28;20205;-76
2022/04/07 09:04:06;;;;;;;8.13;4.17;;;;;;;21.15;37.49;93216.16;5093332;28;20222;-76
2022/04/07 09:06:34;;;;;;;10.43;4.20;;;;;;;21.25;37.19;93213.72;5093508;28;20213;-77
2022/04/07 09:09:12;;;;;;;6.03;3.90;;;;;;;21.35;36.83;93214.91;5092817;28;20185;-76
2022/04/07 09:11:38;;;;;;;7.23;3.67;;;;;;;;;;5092762;28;20200;-76
2022/04/07 09:14:05;;;;;;;6.80;4.47;;;;;;;21.48;36.60;93223.13;5092562;28;20200;-76
2022/04/07 09:16:33;;;;;;;6.47;3.67;;;;;;;21.50;36.76;93230.69;5093129;28;20212;-75
2022/04/07 09:19:00;;;;;;;6.20;3.83;;;;;;;21.33;36.94;93220.34;5092406;28;20190;-76
2022/04/07 09:21:28;;;;;;;8.93;3.67;;;;;;;21.21;37.08;93240.44;5092644;28;20243;-75
2022/04/07 09:23:55;;;;;;;9.60;3.70;;;;;;;20.99;37.38;93251.56;5092292;28;20209;-77
2022/04/07 09:26:24;;;;;;;10.90;4.63;;;;;;;20.74;37.63;93238.94;5092587;28;20186;-78
2022/04/07 09:28:55;;;;;;;6.77;3.90;;;;;;;20.54;38.20;93241.97;5092591;28;20669;-78
2022/04/07 09:31:22;;;;;;;8.93;4.63;;;;;;;20.35;38.42;93238.00;5092599;28;20661;-76
2022/04/07 09:33:53;;;;;;;9.30;4.90;;;;;;;20.12;38.66;93219.91;5092416;28;20661;-77
2022/04/07 09:36:22;;;;;;;10.10;5.33;;;;;;;20.00;38.95;93228.56;5092693;28;20690;-75
2022/04/07 09:38:53;;;;;;;12.13;4.87;;;;;;;19.86;39.30;93231.63;5092436;28;20186;-76
2022/04/07 09:41:21;;;;;;;5.43;4.77;;;;;;;19.71;39.67;93245.09;5091900;28;20665;-75
2022/04/07 09:43:51;;;;;;;9.33;5.20;;;;;;;19.57;39.90;93249.75;5092087;28;20226;-76
2022/04/07 09:46:20;;;;;;;11.60;5.40;;;;;;;19.46;40.32;93251.31;5091841;28;20194;-76
2022/04/07 09:49:01;;;;;;;9.93;5.70;;;;;;;19.29;40.66;93258.19;5092006;28;20196;-76
2022/04/07 09:51:28;;;;;;;7.03;4.60;;;;;;;19.14;41.37;93258.66;5092358;28;20197;-74
2022/04/07 09:53:56;;;;;;;10.20;4.10;;;;;;;18.99;42.17;93264.28;5092094;28;20186;-75
2022/04/07 09:56:27;;;;;;;10.27;4.67;;;;;;;18.88;42.62;93272.06;5091809;28;20190;-74
2022/04/07 09:58:56;;;;;;;8.67;3.87;;;;;;;18.72;43.63;93276.84;5091994;28;20224;-76
2022/04/07 10:01:24;;;;;;;17.20;4.50;;;;;;;18.56;44.79;93274.88;5091551;28;20190;-76
2022/04/07 10:03:52;;;;;;;13.07;4.83;;;;;;;18.39;45.92;93274.72;5091611;28;20225;-78
2022/04/07 10:06:20;;;;;;;9.43;4.47;;;;;;;18.23;46.82;93277.94;5091903;28;20182;-75
2022/04/07 10:08:51;;;;;;;14.10;4.43;;;;;;;18.11;47.26;93277.09;5091742;28;20185;-76
2022/04/07 10:11:19;;;;;;;13.97;4.33;;;;;;;17.95;48.08;93281.84;5091721;28;20181;-77
2022/04/07 10:13:48;;;;;;;8.73;4.33;;;;;;;17.81;49.09;93285.59;5091795;28;20572;-76
2022/04/07 10:16:17;;;;;;;11.40;4.43;;;;;;;17.67;50.16;93282.34;5091235;28;20192;-74
2022/04/07 10:18:48;;;;;;;10.50;4.83;;;;;;;17.56;50.84;93286.41;5091501;28;20657;-75
2022/04/07 10:24:37;;;;;;;9.97;5.20;;;;;;;17.26;53.46;93267.44;5002181;28;20271;-76
2022/04/07 10:27:08;;;;;;;14.70;5.60;;;;;;;17.20;54.08;93257.97;5009022;28;20192;-76
2022/04/07 10:29:38;;;;;;;15.93;5.43;;;;;;;17.24;54.73;93266.88;5009026;28;20247;-74
2022/04/07 10:32:22;;;;;;;7.93;5.20;;;;;;;17.21;55.28;93265.50;5008997;28;20196;-76
2022/04/07 10:34:57;;;;;;;10.00;4.90;;;;;;;17.19;55.93;93264.16;5008630;28;20315;-75
2022/04/07 10:37:41;;;;;;;12.00;5.30;;;;;;;17.16;56.19;93262.78;5008949;28;20189;-76
2022/04/07 10:40:34;;;;;;;11.30;5.50;;;;;;;17.16;56.55;93254.25;5008962;28;20287;-77
2022/04/07 10:43:26;;;;;;;12.57;5.43;;;;;;;17.14;57.03;93253.66;5008689;28;20254;-75
2022/04/07 10:46:06;;;;;;;7.90;5.07;;;;;;;17.13;56.70;93250.28;5008490;28;20596;-79
2022/04/07 10:48:35;;;;;;;11.60;5.57;;;;;;;17.06;56.79;93236.66;5008924;28;20659;-75
2022/04/07 10:51:04;;;;;;;7.80;5.43;;;;;;;17.12;57.03;93227.25;5008576;28;20259;-78
2022/04/07 10:53:33;;;;;;;8.10;4.97;;;;;;;17.22;56.78;93230.13;5008836;28;20196;-75
2022/04/07 10:56:08;;;;;;;10.63;5.83;;;;;;;17.32;56.55;93229.66;5008318;28;20196;-75
2022/04/07 10:58:48;;;;;;;10.73;5.93;;;;;;;17.39;56.63;93231.13;5008643;28;20184;-78
2022/04/07 11:01:31;;;;;;;8.50;5.37;;;;;;;17.50;56.15;93219.31;5030136;28;20445;-75
2022/04/07 11:04:29;;;;;;;11.70;5.97;;;;;;;17.59;55.92;93215.41;5057524;28;20316;-75
2022/04/07 11:07:22;;;;;;;8.53;4.73;;;;;;;17.70;55.58;93208.72;5070393;28;20198;-76
2022/04/07 11:10:13;;;;;;;6.17;4.80;;;;;;;17.84;55.58;93211.97;5070378;28;20248;-77
2022/04/07 11:12:46;;;;;;;11.67;5.13;;;;;;;17.97;55.19;93211.81;5070154;28;20192;-76
2022/04/07 11:15:37;;;;;;;9.53;4.50;;;;;;;18.11;54.58;93217.59;5070246;28;20190;-79
2022/04/07 11:18:22;;;;;;;5.77;4.93;;;;;;;18.23;54.30;93202.91;5061692;28;20194;-77
2022/04/07 11:21:08;;;;;;;6.77;4.80;;;;;;;18.36;53.90;93207.09;5070154;28;20186;-76
2022/04/07 11:23:42;;;;;;;10.83;4.80;;;;;;;18.42;53.54;93196.63;5070495;28;20198;-77
2022/04/07 11:26:13;;;;;;;9.33;4.63;;;;;;;18.56;52.94;93207.56;5070166;28;20186;-78
2022/04/07 11:28:56;;;;;;;6.83;4.43;;;;;;;18.61;52.65;93201.72;5070198;28;20197;-77
2022/04/07 11:31:50;;;;;;;8.17;4.57;;;;;;;18.71;52.20;93207.19;5069974;28;20197;-76
2022/04/07 11:34:42;;;;;;;7.90;4.07;;;;;;;18.82;51.76;93221.13;5083613;28;20287;-77
2022/04/07 11:37:11;;;;;;;7.03;4.17;;;;;;;18.87;51.54;93216.06;5090199;28;20197;-78
2022/04/07 11:39:42;;;;;;;6.83;4.33;;;;;;;19.02;51.17;93212.03;5090174;28;20189;-78
2022/04/07 11:42:09;;;;;;;8.03;4.33;;;;;;;19.09;50.93;93204.16;5090118;28;20586;-78